createdAt,value
2022-12-19T00:00:38.060Z,27.13
2022-12-19T00:03:06.859Z,27.35
2022-12-19T00:05:39.892Z,26.92
2022-12-19T00:08:16.946Z,25.50
2022-12-19T00:10:46.044Z,27.63
2022-12-19T00:13:17.097Z,26.48
2022-12-19T00:15:45.609Z,26.35
2022-12-19T00:18:14.067Z,26.58
2022-12-19T00:20:43.993Z,24.40
2022-12-19T00:23:12.465Z,28.55
2022-12-19T00:25:49.709Z,29.85
2022-12-19T00:28:19.181Z,27.15
2022-12-19T00:30:49.789Z,25.85
2022-12-19T00:33:20.255Z,24.40
2022-12-19T00:35:50.302Z,25.20
2022-12-19T00:38:18.772Z,27.98
2022-12-19T00:40:47.571Z,26.77
2022-12-19T00:43:15.961Z,25.08
2022-12-19T00:45:44.521Z,25.38
2022-12-19T00:48:13.241Z,25.25
2022-12-19T00:50:44.495Z,26.55
2022-12-19T00:53:14.536Z,23.52
2022-12-19T00:55:43.089Z,24.38
2022-12-19T00:58:11.657Z,25.50
2022-12-19T01:00:40.780Z,23.85
2022-12-19T01:03:11.880Z,25.60
2022-12-19T01:05:40.805Z,25.55
2022-12-19T01:08:10.635Z,26.95
2022-12-19T01:10:46.418Z,25.23
2022-12-19T01:13:14.104Z,24.63
2022-12-19T01:15:42.603Z,23.05
2022-12-19T01:18:11.286Z,24.77
2022-12-19T01:20:40.561Z,26.10
2022-12-19T01:23:09.167Z,25.02
2022-12-19T01:25:40.156Z,25.30
2022-12-19T01:28:14.426Z,22.90
2022-12-19T01:30:44.185Z,23.85
2022-12-19T01:33:13.576Z,22.58
2022-12-19T01:35:42.334Z,23.45
2022-12-19T01:38:13.502Z,21.75
2022-12-19T01:40:50.800Z,23.67
2022-12-19T01:43:19.267Z,23.63
2022-12-19T01:45:48.935Z,25.83
2022-12-19T01:48:20.090Z,23.58
2022-12-19T01:51:01.046Z,22.35
2022-12-19T01:53:34.997Z,21.35
2022-12-19T01:56:09.114Z,24.55
2022-12-19T01:58:40.725Z,22.42
2022-12-19T02:01:09.349Z,22.75
2022-12-19T02:03:39.647Z,23.20
2022-12-19T02:06:09.592Z,24.13
2022-12-19T02:08:38.215Z,21.13
2022-12-19T02:11:08.060Z,21.95
2022-12-19T02:13:36.556Z,23.67
2022-12-19T02:16:11.040Z,23.85
2022-12-19T02:18:45.832Z,24.58
2022-12-19T02:21:29.497Z,22.17
2022-12-19T02:24:41.508Z,22.90
2022-12-19T02:27:42.847Z,23.27
2022-12-19T02:30:13.682Z,22.05
2022-12-19T02:32:52.887Z,22.83
2022-12-19T02:35:28.087Z,23.85
2022-12-19T02:38:01.916Z,22.52
2022-12-19T02:40:35.239Z,21.60
2022-12-19T02:43:03.747Z,21.05
2022-12-19T02:45:35.101Z,21.88
2022-12-19T02:48:08.768Z,21.60
2022-12-19T02:50:39.678Z,22.10
2022-12-19T02:53:08.452Z,23.67
2022-12-19T02:55:40.724Z,20.98
2022-12-19T02:58:27.603Z,23.25
2022-12-19T03:00:59.200Z,21.15
2022-12-19T03:03:35.362Z,21.00
2022-12-19T03:06:08.547Z,25.40
2022-12-19T03:08:39.648Z,21.25
2022-12-19T03:11:09.569Z,22.13
2022-12-19T03:13:40.455Z,22.15
2022-12-19T03:16:10.189Z,21.27
2022-12-19T03:18:40.121Z,19.92
2022-12-19T03:21:12.456Z,21.20
2022-12-19T03:23:41.237Z,19.90
2022-12-19T03:26:11.798Z,22.67
2022-12-19T03:28:44.202Z,20.00
2022-12-19T03:31:13.216Z,20.75
2022-12-19T03:33:43.168Z,20.95
2022-12-19T03:36:14.198Z,20.13
2022-12-19T03:38:42.786Z,22.60
2022-12-19T03:41:12.252Z,20.25
2022-12-19T03:43:39.679Z,21.83
2022-12-19T03:46:14.119Z,20.65
2022-12-19T03:48:46.142Z,20.15
2022-12-19T03:51:21.647Z,21.02
2022-12-19T03:53:57.147Z,19.85
2022-12-19T03:56:33.198Z,20.88
2022-12-19T03:59:06.123Z,19.15
2022-12-19T04:01:35.224Z,20.02
2022-12-19T04:04:05.883Z,21.13
2022-12-19T04:06:35.205Z,21.98
2022-12-19T04:09:03.926Z,21.52
2022-12-19T04:11:36.644Z,21.52
2022-12-19T04:14:08.753Z,22.27
2022-12-19T04:16:41.226Z,22.25
2022-12-19T04:19:14.708Z,19.95
2022-12-19T04:21:45.137Z,21.55
2022-12-19T04:24:20.588Z,21.67
2022-12-19T04:26:49.852Z,20.67
2022-12-19T04:29:18.365Z,19.75
2022-12-19T04:31:46.916Z,21.67
2022-12-19T04:34:17.196Z,18.65
2022-12-19T04:36:45.773Z,23.20
2022-12-19T04:39:14.333Z,21.63
2022-12-19T04:41:42.751Z,19.85
2022-12-19T04:44:11.394Z,20.20
2022-12-19T04:46:40.009Z,19.95
2022-12-19T04:49:08.835Z,18.23
2022-12-19T04:51:38.859Z,21.80
2022-12-19T04:54:07.362Z,20.35
2022-12-19T04:56:35.888Z,22.55
2022-12-19T04:59:04.428Z,20.90
2022-12-19T05:01:33.111Z,21.63
2022-12-19T05:04:04.606Z,19.50
2022-12-19T05:06:33.904Z,22.55
2022-12-19T05:09:03.788Z,21.58
2022-12-19T05:11:32.225Z,22.65
2022-12-19T05:14:00.820Z,19.65
2022-12-19T05:16:29.378Z,19.42
2022-12-19T05:18:58.029Z,22.52
2022-12-19T05:21:26.731Z,23.02
2022-12-19T05:23:55.317Z,20.88
2022-12-19T05:26:25.398Z,22.35
2022-12-19T05:28:54.096Z,21.75
2022-12-19T05:31:22.722Z,19.83
2022-12-19T05:33:51.679Z,22.27
2022-12-19T05:36:20.330Z,20.48
2022-12-19T05:38:48.902Z,19.90
2022-12-19T05:41:18.417Z,22.45
2022-12-19T05:43:51.233Z,19.63
2022-12-19T05:46:19.791Z,22.05
2022-12-19T05:48:48.509Z,19.30
2022-12-19T05:51:17.706Z,20.38
2022-12-19T05:53:46.147Z,25.40
2022-12-19T05:56:16.823Z,22.40
2022-12-19T05:58:48.432Z,22.60
2022-12-19T06:01:18.976Z,20.77
2022-12-19T06:03:47.673Z,20.48
2022-12-19T06:06:17.683Z,21.90
2022-12-19T06:08:53.842Z,19.90
2022-12-19T06:11:22.473Z,22.35
2022-12-19T06:13:52.449Z,22.95
2022-12-19T06:16:22.100Z,19.42
2022-12-19T06:18:50.686Z,27.27
2022-12-19T06:21:20.367Z,20.77
2022-12-19T06:23:48.855Z,24.73
2022-12-19T06:26:20.305Z,26.58
2022-12-19T06:28:49.191Z,20.45
2022-12-19T06:31:19.312Z,22.65
2022-12-19T06:33:47.999Z,21.52
2022-12-19T06:36:19.880Z,20.75
2022-12-19T06:38:48.577Z,19.88
2022-12-19T06:41:34.372Z,22.15
2022-12-19T06:44:03.805Z,23.63
2022-12-19T06:46:33.730Z,23.73
2022-12-19T06:49:02.976Z,20.08
2022-12-19T06:51:31.633Z,22.42
2022-12-19T06:54:00.118Z,19.73
2022-12-19T06:56:28.654Z,20.77
2022-12-19T06:58:57.403Z,18.63
2022-12-19T07:01:31.749Z,22.00
2022-12-19T07:04:01.719Z,22.67
2022-12-19T07:06:30.800Z,26.67
2022-12-19T07:08:59.392Z,23.42
2022-12-19T07:11:27.963Z,22.13
2022-12-19T07:13:58.811Z,22.60
2022-12-19T07:16:27.466Z,22.00
2022-12-19T07:18:56.041Z,20.23
2022-12-19T07:21:25.921Z,23.77
2022-12-19T07:23:54.392Z,24.38
2022-12-19T07:26:23.426Z,20.90
2022-12-19T07:28:51.934Z,24.05
2022-12-19T07:31:20.531Z,24.58
2022-12-19T07:33:49.344Z,20.58
2022-12-19T07:36:17.878Z,20.92
2022-12-19T07:38:47.854Z,21.73
2022-12-19T07:41:16.440Z,20.98
2022-12-19T07:43:45.707Z,22.33
2022-12-19T07:46:14.219Z,22.38
2022-12-19T07:48:42.833Z,23.88
2022-12-19T07:51:11.316Z,23.35
2022-12-19T07:53:39.949Z,21.27
2022-12-19T07:56:10.247Z,22.98
2022-12-19T07:58:39.282Z,23.58
2022-12-19T08:01:07.982Z,20.90
2022-12-19T08:03:37.192Z,23.55
2022-12-19T08:06:07.447Z,20.98
2022-12-19T08:08:37.816Z,22.70
2022-12-19T08:11:12.393Z,23.33
2022-12-19T08:13:46.394Z,20.70
2022-12-19T08:16:15.803Z,24.08
2022-12-19T08:18:44.329Z,22.98
2022-12-19T08:21:12.836Z,20.83
2022-12-19T08:23:41.534Z,52.30
2022-12-19T08:26:14.579Z,41.08
2022-12-19T08:28:43.432Z,55.08
2022-12-19T08:31:13.292Z,148.63
2022-12-19T08:33:41.885Z,126.07
2022-12-19T08:36:12.501Z,101.28
2022-12-19T08:38:41.314Z,151.70
2022-12-19T08:41:11.409Z,113.78
2022-12-19T08:43:39.921Z,109.68
2022-12-19T08:46:09.380Z,114.20
2022-12-19T08:48:38.588Z,117.63
2022-12-19T08:51:08.636Z,104.40
2022-12-19T08:53:39.145Z,128.05
2022-12-19T08:56:11.884Z,118.47
2022-12-19T08:58:40.464Z,108.10
2022-12-19T09:01:13.570Z,122.38
2022-12-19T09:04:07.940Z,120.65
2022-12-19T09:06:30.704Z,111.47
2022-12-19T09:09:00.236Z,100.20
2022-12-19T09:11:31.307Z,110.13
2022-12-19T09:14:00.641Z,107.45
2022-12-19T09:16:29.851Z,103.75
2022-12-19T09:18:59.558Z,98.07
2022-12-19T09:21:31.271Z,101.57
2022-12-19T09:24:07.448Z,99.85
2022-12-19T09:26:38.764Z,108.80
2022-12-19T09:29:20.007Z,102.53
2022-12-19T09:31:55.633Z,114.15
2022-12-19T09:34:36.827Z,107.05
2022-12-19T09:37:08.038Z,100.65
2022-12-19T09:39:37.134Z,100.97
2022-12-19T09:42:32.246Z,97.47
2022-12-19T09:45:31.736Z,90.40
2022-12-19T09:48:01.773Z,87.85
2022-12-19T09:50:42.169Z,93.20
2022-12-19T09:53:18.614Z,93.03
2022-12-19T09:55:47.235Z,94.55
2022-12-19T09:58:22.225Z,93.25
2022-12-19T10:00:56.788Z,86.97
2022-12-19T10:03:32.307Z,85.32
2022-12-19T10:07:14.004Z,84.38
2022-12-19T10:10:29.179Z,81.30
2022-12-19T10:12:43.073Z,71.35
2022-12-19T10:15:04.609Z,77.20
2022-12-19T10:17:42.978Z,63.38
2022-12-19T10:20:21.139Z,74.10
2022-12-19T10:23:01.918Z,73.65
2022-12-19T10:25:38.476Z,69.65
2022-12-19T10:28:18.661Z,67.35
2022-12-19T10:30:52.543Z,67.03
2022-12-19T10:33:25.474Z,75.15
2022-12-19T10:35:56.133Z,67.82
2022-12-19T10:38:33.536Z,70.25
2022-12-19T10:41:15.106Z,60.72
2022-12-19T10:43:52.080Z,66.55
2022-12-19T10:46:26.701Z,63.55
2022-12-19T10:48:55.434Z,61.95
2022-12-19T10:51:26.089Z,67.55
2022-12-19T10:53:55.296Z,66.93
2022-12-19T10:56:25.536Z,64.43
2022-12-19T10:59:00.611Z,57.17
2022-12-19T11:01:34.440Z,59.80
2022-12-19T11:04:29.387Z,62.42
2022-12-19T11:07:19.823Z,54.22
2022-12-19T11:09:54.049Z,56.95
2022-12-19T11:17:32.641Z,55.47
2022-12-19T11:20:28.181Z,62.17
2022-12-19T11:28:30.110Z,50.83
2022-12-19T11:29:30.351Z,53.10
2022-12-19T11:30:07.046Z,59.45
2022-12-19T11:30:47.442Z,52.05
2022-12-19T11:32:40.932Z,51.85
2022-12-19T11:35:24.463Z,53.97
2022-12-19T11:37:58.394Z,61.58
2022-12-19T11:40:34.270Z,51.72
2022-12-19T11:46:01.527Z,48.75
2022-12-19T11:48:38.470Z,53.30
2022-12-19T11:51:16.348Z,49.58
2022-12-19T11:53:52.296Z,52.95
2022-12-19T11:56:22.944Z,52.20
2022-12-19T11:58:54.449Z,48.55
2022-12-19T12:01:37.131Z,47.63
2022-12-19T12:04:19.496Z,49.55
2022-12-19T12:06:51.129Z,49.92
2022-12-19T12:12:34.200Z,41.75
2022-12-19T12:18:40.998Z,46.42
2022-12-19T12:24:22.394Z,42.75
2022-12-19T12:31:12.903Z,41.50
2022-12-19T12:31:19.376Z,41.60
2022-12-19T12:31:39.144Z,44.83
2022-12-19T12:31:43.407Z,40.40
2022-12-19T12:32:06.159Z,38.92
2022-12-19T12:35:48.782Z,37.88
2022-12-19T12:39:05.039Z,34.38
2022-12-19T12:41:59.320Z,40.55
2022-12-19T12:44:33.428Z,39.63
2022-12-19T12:47:06.663Z,40.55
2022-12-19T12:49:40.178Z,41.90
2022-12-19T12:52:12.777Z,38.15
2022-12-19T12:54:44.816Z,34.42
2022-12-19T12:57:36.071Z,35.33
2022-12-19T13:00:27.545Z,38.33
2022-12-19T13:03:05.559Z,34.92
2022-12-19T13:05:52.627Z,38.33
2022-12-19T13:08:46.860Z,33.63
2022-12-19T13:11:37.193Z,37.65
2022-12-19T13:14:07.595Z,36.17
2022-12-19T13:16:53.235Z,33.50
2022-12-19T13:19:28.532Z,32.30
2022-12-19T13:22:18.445Z,37.28
2022-12-19T13:24:47.991Z,33.92
2022-12-19T13:27:49.465Z,33.03
2022-12-19T13:30:22.617Z,31.15
2022-12-19T13:33:11.287Z,33.35
2022-12-19T13:36:52.620Z,33.00
2022-12-19T13:39:56.403Z,35.78
2022-12-19T13:41:46.776Z,34.80
2022-12-19T13:44:15.709Z,35.92
2022-12-19T13:46:45.872Z,31.23
2022-12-19T13:49:16.553Z,35.38
2022-12-19T13:51:48.812Z,34.83
2022-12-19T13:54:22.933Z,30.95
2022-12-19T13:56:53.016Z,36.33
2022-12-19T13:59:22.193Z,33.90
2022-12-19T14:01:52.142Z,35.30
2022-12-19T14:04:28.799Z,33.55
2022-12-19T14:07:00.605Z,35.20
2022-12-19T14:11:25.110Z,32.00
2022-12-19T14:13:53.351Z,33.17
2022-12-19T14:15:31.274Z,32.88
2022-12-19T14:18:21.916Z,31.48
2022-12-19T14:22:04.136Z,33.85
2022-12-19T14:23:43.592Z,33.72
2022-12-19T14:28:20.290Z,34.40
2022-12-19T14:29:06.645Z,28.42
2022-12-19T14:31:35.869Z,31.45
2022-12-19T14:34:43.376Z,30.27
2022-12-19T14:36:55.910Z,35.28
2022-12-19T14:39:29.699Z,32.00
2022-12-19T14:42:48.360Z,28.80
2022-12-19T14:53:52.155Z,30.75
2022-12-19T14:53:52.155Z,28.98
2022-12-19T14:54:22.928Z,30.65
2022-12-19T14:56:11.392Z,32.13
2022-12-19T14:57:25.317Z,33.05
2022-12-19T15:01:07.489Z,29.23
2022-12-19T15:03:20.885Z,28.83
2022-12-19T15:05:49.581Z,36.22
2022-12-19T15:10:58.724Z,29.27
2022-12-19T15:11:53.823Z,27.13
2022-12-19T15:14:54.529Z,36.00
2022-12-19T15:17:27.086Z,31.35
2022-12-19T15:19:55.558Z,28.20
2022-12-19T15:22:24.494Z,31.05
2022-12-19T15:24:54.613Z,34.80
2022-12-19T15:27:23.085Z,30.38
2022-12-19T15:29:51.678Z,28.33
2022-12-19T15:32:20.314Z,35.65
2022-12-19T15:34:51.707Z,28.83
2022-12-19T15:37:20.485Z,32.40
2022-12-19T15:39:49.085Z,33.03
2022-12-19T15:42:21.703Z,32.55
2022-12-19T15:44:50.985Z,30.77
2022-12-19T15:47:23.009Z,32.53
2022-12-19T15:49:51.835Z,29.98
2022-12-19T15:52:21.088Z,32.90
2022-12-19T15:54:50.802Z,34.13
2022-12-19T15:57:27.428Z,31.40
2022-12-19T15:59:56.498Z,33.22
2022-12-19T16:02:42.771Z,30.48
2022-12-19T16:05:15.617Z,31.40
2022-12-19T16:07:44.408Z,33.38
2022-12-19T16:10:13.191Z,30.67
2022-12-19T16:12:44.796Z,34.85
2022-12-19T16:15:24.974Z,32.00
2022-12-19T16:17:53.583Z,29.80
2022-12-19T16:20:23.665Z,34.22
2022-12-19T16:22:52.388Z,30.52
2022-12-19T16:25:20.881Z,30.08
2022-12-19T16:27:54.573Z,33.60
2022-12-19T16:30:24.975Z,31.75
2022-12-19T16:32:53.838Z,35.15
2022-12-19T16:35:40.388Z,30.50
2022-12-19T16:38:12.165Z,33.85
2022-12-19T16:40:40.748Z,32.40
2022-12-19T16:43:15.634Z,29.52
2022-12-19T16:45:44.280Z,29.85
2022-12-19T16:48:19.890Z,35.05
2022-12-19T16:50:48.666Z,31.52
2022-12-19T16:53:17.231Z,33.70
2022-12-19T16:55:46.008Z,35.15
2022-12-19T16:58:19.750Z,29.17
2022-12-19T17:00:48.372Z,28.35
2022-12-19T17:03:28.408Z,33.55
2022-12-19T17:05:57.100Z,36.05
2022-12-19T17:08:25.706Z,33.75
2022-12-19T17:10:54.569Z,35.63
2022-12-19T17:13:24.717Z,36.40
2022-12-19T17:15:57.151Z,37.08
2022-12-19T17:18:28.986Z,32.47
2022-12-19T17:20:57.984Z,33.15
2022-12-19T17:23:29.147Z,36.55
2022-12-19T17:25:59.445Z,31.52
2022-12-19T17:28:29.333Z,33.88
2022-12-19T17:31:00.112Z,29.50
2022-12-19T17:33:33.263Z,32.78
2022-12-19T17:36:01.928Z,31.40
2022-12-19T17:38:30.497Z,35.47
2022-12-19T17:40:59.124Z,34.00
2022-12-19T17:43:28.962Z,34.25
2022-12-19T17:45:57.608Z,35.03
2022-12-19T17:48:28.893Z,33.97
2022-12-19T17:50:57.523Z,32.30
2022-12-19T17:53:26.109Z,32.83
2022-12-19T17:55:54.656Z,31.45
2022-12-19T17:58:23.204Z,30.95
2022-12-19T18:00:53.337Z,38.28
2022-12-19T18:03:23.520Z,36.20
2022-12-19T18:05:53.196Z,30.92
2022-12-19T18:08:26.520Z,32.40
2022-12-19T18:10:56.670Z,34.97
2022-12-19T18:13:26.222Z,34.28
2022-12-19T18:15:58.445Z,32.08
2022-12-19T18:18:29.207Z,34.30
2022-12-19T18:20:58.474Z,33.85
2022-12-19T18:23:27.191Z,35.72
2022-12-19T18:26:01.233Z,32.25
2022-12-19T18:28:30.831Z,29.67
2022-12-19T18:31:03.143Z,32.65
2022-12-19T18:33:36.181Z,33.25
2022-12-19T18:36:05.291Z,28.75
2022-12-19T18:38:33.881Z,28.80
2022-12-19T18:41:02.543Z,28.63
2022-12-19T18:43:32.769Z,31.60
2022-12-19T18:46:02.960Z,30.13
2022-12-19T18:48:33.952Z,29.23
2022-12-19T18:51:03.706Z,32.47
2022-12-19T18:53:35.580Z,27.67
2022-12-19T18:56:05.530Z,27.85
2022-12-19T18:58:34.402Z,28.27
2022-12-19T19:01:05.981Z,30.95
2022-12-19T19:03:36.126Z,31.95
2022-12-19T19:06:05.514Z,31.02
2022-12-19T19:08:35.058Z,27.75
2022-12-19T19:11:03.633Z,26.60
2022-12-19T19:13:32.545Z,31.70
2022-12-19T19:16:03.779Z,27.13
2022-12-19T19:18:35.394Z,31.90
2022-12-19T19:21:03.895Z,25.95
2022-12-19T19:23:36.275Z,26.95
2022-12-19T19:26:04.781Z,28.40
2022-12-19T19:28:33.283Z,28.27
2022-12-19T19:31:03.149Z,28.80
2022-12-19T19:33:33.478Z,25.08
2022-12-19T19:36:11.353Z,26.58
2022-12-19T19:38:41.380Z,26.55
2022-12-19T19:41:10.007Z,25.67
2022-12-19T19:43:38.473Z,28.08
2022-12-19T19:46:08.510Z,24.33
2022-12-19T19:48:37.192Z,27.30
2022-12-19T19:51:06.141Z,25.13
2022-12-19T19:53:36.158Z,23.00
2022-12-19T19:56:05.351Z,26.88
2022-12-19T19:58:33.805Z,26.73
2022-12-19T20:01:02.417Z,25.77
2022-12-19T20:03:32.466Z,24.38
2022-12-19T20:06:01.284Z,24.73
2022-12-19T20:08:36.989Z,26.05
2022-12-19T20:11:07.823Z,26.80
2022-12-19T20:13:36.404Z,26.48
2022-12-19T20:16:06.569Z,27.05
2022-12-19T20:18:36.792Z,20.80
2022-12-19T20:21:09.292Z,27.02
2022-12-19T20:23:40.921Z,26.25
2022-12-19T20:26:09.375Z,21.33
2022-12-19T20:28:42.293Z,22.83
2022-12-19T20:31:16.287Z,23.85
2022-12-19T20:33:46.409Z,23.27
2022-12-19T20:36:15.439Z,24.55
2022-12-19T20:38:44.040Z,20.60
2022-12-19T20:41:12.447Z,22.95
2022-12-19T20:43:41.864Z,22.52
2022-12-19T20:46:11.861Z,22.95
2022-12-19T20:48:40.681Z,18.45
2022-12-19T20:51:10.628Z,22.55
2022-12-19T20:53:39.790Z,19.05
2022-12-19T20:56:09.522Z,22.80
2022-12-19T20:58:39.261Z,20.90
2022-12-19T21:01:09.612Z,23.02
2022-12-19T21:03:38.936Z,19.77
2022-12-19T21:06:10.511Z,19.90
2022-12-19T21:08:39.252Z,20.65
2022-12-19T21:11:08.313Z,18.63
2022-12-19T21:13:37.138Z,19.15
2022-12-19T21:16:08.791Z,20.85
2022-12-19T21:18:37.965Z,18.23
2022-12-19T21:21:07.195Z,19.85
2022-12-19T21:23:37.133Z,22.08
2022-12-19T21:26:06.388Z,22.52
2022-12-19T21:28:34.856Z,18.92
2022-12-19T21:31:05.265Z,21.80
2022-12-19T21:33:33.962Z,20.25
2022-12-19T21:36:08.289Z,16.85
2022-12-19T21:38:38.463Z,21.08
2022-12-19T21:41:07.834Z,21.92
2022-12-19T21:43:36.978Z,18.55
2022-12-19T21:46:10.265Z,19.20
2022-12-19T21:48:39.538Z,18.15
2022-12-19T21:51:08.176Z,19.75
2022-12-19T21:53:38.145Z,19.42
2022-12-19T21:56:08.128Z,17.98
2022-12-19T21:58:36.801Z,18.75
2022-12-19T22:01:08.458Z,18.65
2022-12-19T22:03:37.498Z,18.85
2022-12-19T22:06:08.772Z,17.02
2022-12-19T22:08:38.693Z,16.73
2022-12-19T22:11:13.483Z,16.80
2022-12-19T22:13:42.116Z,18.92
2022-12-19T22:16:11.668Z,16.23
2022-12-19T22:18:40.223Z,16.20
2022-12-19T22:21:09.241Z,16.25
2022-12-19T22:23:39.199Z,18.55
2022-12-19T22:26:09.077Z,17.17
2022-12-19T22:28:38.945Z,18.15
2022-12-19T22:31:16.640Z,17.02
2022-12-19T22:33:45.312Z,16.00
2022-12-19T22:36:15.496Z,15.45
2022-12-19T22:38:47.106Z,14.80
2022-12-19T22:41:16.816Z,17.05
2022-12-19T22:43:45.523Z,16.48
2022-12-19T22:46:14.589Z,17.33
2022-12-19T22:48:43.353Z,15.95
2022-12-19T22:51:11.808Z,16.23
2022-12-19T22:53:40.798Z,16.77
2022-12-19T22:56:13.866Z,17.15
2022-12-19T22:58:43.573Z,16.25
2022-12-19T23:01:14.951Z,13.63
2022-12-19T23:03:43.639Z,15.70
2022-12-19T23:06:12.353Z,14.95
2022-12-19T23:08:41.021Z,14.55
2022-12-19T23:11:12.123Z,13.50
2022-12-19T23:13:40.717Z,13.68
2022-12-19T23:16:09.569Z,13.77
2022-12-19T23:18:38.283Z,13.13
2022-12-19T23:21:09.270Z,14.88
2022-12-19T23:23:40.008Z,13.85
2022-12-19T23:26:15.569Z,13.52
2022-12-19T23:28:45.048Z,12.60
2022-12-19T23:31:14.432Z,14.32
2022-12-19T23:33:42.916Z,13.05
2022-12-19T23:36:11.797Z,13.95
2022-12-19T23:38:42.193Z,13.80
2022-12-19T23:41:13.318Z,13.90
2022-12-19T23:43:42.100Z,12.77
2022-12-19T23:46:12.824Z,12.02
2022-12-19T23:48:41.405Z,14.15
2022-12-19T23:51:14.213Z,12.55
2022-12-19T23:53:42.789Z,14.18
2022-12-19T23:56:14.865Z,15.35
2022-12-19T23:58:43.411Z,13.65
